createdAt,value
2024-01-03T00:00:57.577Z,37.30
2024-01-03T00:03:26.219Z,37.30
2024-01-03T00:05:53.303Z,37.30
2024-01-03T00:08:28.181Z,37.30
2024-01-03T00:10:56.596Z,37.30
2024-01-03T00:13:43.397Z,37.40
2024-01-03T00:16:19.327Z,37.30
2024-01-03T00:18:53.338Z,37.30
2024-01-03T00:21:24.493Z,37.40
2024-01-03T00:23:53.466Z,37.30
2024-01-03T00:26:20.671Z,37.30
2024-01-03T00:28:47.633Z,37.30
2024-01-03T00:31:23.376Z,37.30
2024-01-03T00:33:50.287Z,37.30
2024-01-03T00:36:17.504Z,37.30
2024-01-03T00:38:44.582Z,37.30
2024-01-03T00:41:12.494Z,37.30
2024-01-03T00:43:39.953Z,37.30
2024-01-03T00:46:08.238Z,37.30
2024-01-03T00:48:36.171Z,37.30
2024-01-03T00:51:04.023Z,37.40
2024-01-03T00:53:31.265Z,37.40
2024-01-03T00:55:58.149Z,37.40
2024-01-03T00:58:25.089Z,37.40
2024-01-03T01:00:52.092Z,37.30
2024-01-03T01:03:19.159Z,37.30
2024-01-03T01:05:46.180Z,37.40
2024-01-03T01:08:13.242Z,37.30
2024-01-03T01:10:40.052Z,37.30
2024-01-03T01:13:07.035Z,37.40
2024-01-03T01:15:33.956Z,37.30
2024-01-03T01:18:00.949Z,37.30
2024-01-03T01:20:27.930Z,37.30
2024-01-03T01:22:54.776Z,37.30
2024-01-03T01:25:21.712Z,37.30
2024-01-03T01:27:48.925Z,37.30
2024-01-03T01:30:15.905Z,37.30
2024-01-03T01:32:42.870Z,37.30
2024-01-03T01:35:09.843Z,37.30
2024-01-03T01:37:36.785Z,37.30
2024-01-03T01:40:03.704Z,37.30
2024-01-03T01:42:32.149Z,37.30
2024-01-03T01:44:59.248Z,37.30
2024-01-03T01:47:27.143Z,37.30
2024-01-03T01:49:54.519Z,37.30
2024-01-03T01:52:21.955Z,37.30
2024-01-03T01:54:49.793Z,37.30
2024-01-03T01:57:16.888Z,37.30
2024-01-03T01:59:43.881Z,37.30
2024-01-03T02:02:11.444Z,37.30
2024-01-03T02:04:38.787Z,37.30
2024-01-03T02:07:06.504Z,37.20
2024-01-03T02:09:33.400Z,37.30
2024-01-03T02:12:00.429Z,37.80
2024-01-03T02:14:27.731Z,37.30
2024-01-03T02:16:54.759Z,37.20
2024-01-03T02:19:21.721Z,37.30
2024-01-03T02:21:48.676Z,37.20
2024-01-03T02:24:15.636Z,37.30
2024-01-03T02:26:42.526Z,37.30
2024-01-03T02:29:09.408Z,37.30
2024-01-03T02:31:36.287Z,37.30
2024-01-03T02:34:03.267Z,37.20
2024-01-03T02:36:30.105Z,37.30
2024-01-03T02:38:58.251Z,37.20
2024-01-03T02:41:25.216Z,37.20
2024-01-03T02:43:52.062Z,37.20
2024-01-03T02:46:19.645Z,37.20
2024-01-03T02:48:46.785Z,37.20
2024-01-03T02:51:20.895Z,37.20
2024-01-03T02:53:48.006Z,37.20
2024-01-03T02:56:15.342Z,37.20
2024-01-03T02:58:42.368Z,37.20
2024-01-03T03:01:09.316Z,37.20
2024-01-03T03:03:36.343Z,37.30
2024-01-03T03:06:04.175Z,37.30
2024-01-03T03:08:31.380Z,37.30
2024-01-03T03:10:58.269Z,37.20
2024-01-03T03:13:25.637Z,37.20
2024-01-03T03:15:52.551Z,37.20
2024-01-03T03:18:19.550Z,37.20
2024-01-03T03:20:46.779Z,37.20
2024-01-03T03:23:15.683Z,37.20
2024-01-03T03:25:42.608Z,37.20
2024-01-03T03:28:10.116Z,37.20
2024-01-03T03:30:37.514Z,37.20
2024-01-03T03:33:04.681Z,37.20
2024-01-03T03:35:31.667Z,37.20
2024-01-03T03:37:58.674Z,37.20
2024-01-03T03:40:26.520Z,37.20
2024-01-03T03:42:53.441Z,37.20
2024-01-03T03:45:20.394Z,37.20
2024-01-03T03:47:48.374Z,37.20
2024-01-03T03:50:15.562Z,37.20
2024-01-03T03:52:42.656Z,37.20
2024-01-03T03:55:09.770Z,37.80
2024-01-03T03:57:36.667Z,37.20
2024-01-03T04:00:05.302Z,37.20
2024-01-03T04:02:32.625Z,37.20
2024-01-03T04:04:59.618Z,37.20
2024-01-03T04:07:27.999Z,37.20
2024-01-03T04:09:55.314Z,37.20
2024-01-03T04:12:22.249Z,37.20
2024-01-03T04:14:49.093Z,37.20
2024-01-03T04:17:17.195Z,37.60
2024-01-03T04:19:44.189Z,37.20
2024-01-03T04:22:11.082Z,37.20
2024-01-03T04:24:38.050Z,37.20
2024-01-03T04:27:05.189Z,37.20
2024-01-03T04:29:32.115Z,37.20
2024-01-03T04:31:59.490Z,37.20
2024-01-03T04:34:26.323Z,37.20
2024-01-03T04:36:53.627Z,37.20
2024-01-03T04:39:20.544Z,37.20
2024-01-03T04:41:47.443Z,37.20
2024-01-03T04:44:14.388Z,37.20
2024-01-03T04:46:41.314Z,37.20
2024-01-03T04:49:08.298Z,37.10
2024-01-03T04:51:35.274Z,37.10
2024-01-03T04:54:02.308Z,37.10
2024-01-03T04:56:30.919Z,37.10
2024-01-03T04:58:57.875Z,37.10
2024-01-03T05:01:24.837Z,37.20
2024-01-03T05:03:51.893Z,37.20
2024-01-03T05:06:19.021Z,37.20
2024-01-03T05:08:46.009Z,37.20
2024-01-03T05:11:16.558Z,37.20
2024-01-03T05:13:44.559Z,37.20
2024-01-03T05:16:11.552Z,37.20
2024-01-03T05:18:39.168Z,37.20
2024-01-03T05:21:07.828Z,37.20
2024-01-03T05:23:34.916Z,37.20
2024-01-03T05:26:01.913Z,37.20
2024-01-03T05:28:29.013Z,37.20
2024-01-03T05:30:55.881Z,37.10
2024-01-03T05:33:23.221Z,37.10
2024-01-03T05:35:50.380Z,37.10
2024-01-03T05:38:17.442Z,37.10
2024-01-03T05:40:44.432Z,37.20
2024-01-03T05:43:12.524Z,37.10
2024-01-03T05:45:39.410Z,37.10
2024-01-03T05:48:06.725Z,37.10
2024-01-03T05:50:33.744Z,37.10
2024-01-03T05:53:00.699Z,37.10
2024-01-03T05:55:28.187Z,37.10
2024-01-03T05:57:55.123Z,37.20
2024-01-03T06:00:22.746Z,37.20
2024-01-03T06:02:49.757Z,37.20
2024-01-03T06:05:19.787Z,37.20
2024-01-03T06:07:46.864Z,37.20
2024-01-03T06:10:13.943Z,37.20
2024-01-03T06:12:40.824Z,37.20
2024-01-03T06:15:08.259Z,37.20
2024-01-03T06:17:35.248Z,37.20
2024-01-03T06:20:02.300Z,37.20
2024-01-03T06:22:29.283Z,37.30
2024-01-03T06:24:56.252Z,37.40
2024-01-03T06:27:23.376Z,37.60
2024-01-03T06:29:51.268Z,37.80
2024-01-03T06:32:18.484Z,38.10
2024-01-03T06:34:45.489Z,38.10
2024-01-03T06:37:12.413Z,38.30
2024-01-03T06:39:39.371Z,38.60
2024-01-03T06:42:06.900Z,39.00
2024-01-03T06:44:33.893Z,39.10
2024-01-03T06:47:00.935Z,39.30
2024-01-03T06:49:27.917Z,39.40
2024-01-03T06:52:00.337Z,39.30
2024-01-03T06:54:27.266Z,39.20
2024-01-03T06:56:54.480Z,38.90
2024-01-03T06:59:21.641Z,38.70
2024-01-03T07:01:48.439Z,38.60
2024-01-03T07:04:15.433Z,38.50
2024-01-03T07:06:42.342Z,38.80
2024-01-03T07:09:09.572Z,38.60
2024-01-03T07:11:36.554Z,38.80
2024-01-03T07:14:03.565Z,38.90
2024-01-03T07:16:30.512Z,39.10
2024-01-03T07:18:57.571Z,39.20
2024-01-03T07:21:24.725Z,39.30
2024-01-03T07:23:51.656Z,39.40
2024-01-03T07:26:18.735Z,40.00
2024-01-03T07:28:45.784Z,39.40
2024-01-03T07:31:13.064Z,39.30
2024-01-03T07:33:42.068Z,39.10
2024-01-03T07:36:10.314Z,39.00
2024-01-03T07:38:37.325Z,38.90
2024-01-03T07:41:04.479Z,38.80
2024-01-03T07:43:31.682Z,38.80
2024-01-03T07:45:59.324Z,38.80
2024-01-03T07:48:26.416Z,38.80
2024-01-03T07:50:53.592Z,38.70
2024-01-03T07:53:20.691Z,38.70
2024-01-03T07:55:47.607Z,38.70
2024-01-03T07:58:14.492Z,38.70
2024-01-03T08:00:41.371Z,38.80
2024-01-03T08:03:08.687Z,38.80
2024-01-03T08:05:35.786Z,38.90
2024-01-03T08:08:02.744Z,38.90
2024-01-03T08:10:29.601Z,39.00
2024-01-03T08:12:56.599Z,39.00
2024-01-03T08:15:23.695Z,39.10
2024-01-03T08:17:50.719Z,39.20
2024-01-03T08:20:17.964Z,39.20
2024-01-03T08:22:44.903Z,39.30
2024-01-03T08:25:11.933Z,39.30
2024-01-03T08:27:39.500Z,39.50
2024-01-03T08:30:09.167Z,39.30
2024-01-03T08:32:38.364Z,39.10
2024-01-03T08:35:05.557Z,39.10
2024-01-03T08:37:32.543Z,39.10
2024-01-03T08:40:00.487Z,39.20
2024-01-03T08:42:27.639Z,39.50
2024-01-03T08:44:54.927Z,39.30
2024-01-03T08:47:21.897Z,39.10
2024-01-03T08:49:49.106Z,38.90
2024-01-03T08:52:19.240Z,38.70
2024-01-03T08:54:46.625Z,38.70
2024-01-03T08:57:13.559Z,38.50
2024-01-03T08:59:41.718Z,38.50
2024-01-03T09:02:08.853Z,38.50
2024-01-03T09:04:35.708Z,38.40
2024-01-03T09:07:02.770Z,38.40
2024-01-03T09:09:29.717Z,38.30
2024-01-03T09:11:56.769Z,38.20
2024-01-03T09:14:23.925Z,38.20
2024-01-03T09:16:52.403Z,38.20
2024-01-03T09:19:19.872Z,38.10
2024-01-03T09:21:47.261Z,38.20
2024-01-03T09:24:14.515Z,38.10
2024-01-03T09:26:41.675Z,38.10
2024-01-03T09:29:08.956Z,38.20
2024-01-03T09:31:41.923Z,38.20
2024-01-03T09:34:09.096Z,38.20
2024-01-03T09:36:36.069Z,38.20
2024-01-03T09:39:03.210Z,38.10
2024-01-03T09:41:30.882Z,38.10
2024-01-03T09:43:58.291Z,38.00
2024-01-03T09:46:25.719Z,38.20
2024-01-03T09:48:52.861Z,38.60
2024-01-03T09:51:23.131Z,38.80
2024-01-03T09:53:52.569Z,39.00
2024-01-03T09:56:19.556Z,39.70
2024-01-03T09:58:46.812Z,39.70
2024-01-03T10:01:14.012Z,39.20
2024-01-03T10:03:41.140Z,39.20
2024-01-03T10:06:12.336Z,39.20
2024-01-03T10:08:42.950Z,38.90
2024-01-03T10:11:23.706Z,38.50
2024-01-03T10:13:53.892Z,38.30
2024-01-03T10:16:25.341Z,38.10
2024-01-03T10:19:08.242Z,38.00
2024-01-03T10:21:35.699Z,38.00
2024-01-03T10:24:06.999Z,38.00
2024-01-03T10:26:34.826Z,38.00
2024-01-03T10:29:15.608Z,38.10
2024-01-03T10:31:43.052Z,38.20
2024-01-03T10:34:17.520Z,38.20
2024-01-03T10:36:45.357Z,38.20
2024-01-03T10:39:15.749Z,38.10
2024-01-03T10:41:43.173Z,38.00
2024-01-03T10:44:10.900Z,37.90
2024-01-03T10:46:38.446Z,37.70
2024-01-03T10:49:07.762Z,37.70
2024-01-03T10:51:39.285Z,37.70
2024-01-03T10:54:06.885Z,37.70
2024-01-03T10:56:35.980Z,37.60
2024-01-03T10:59:03.409Z,37.60
2024-01-03T11:01:33.092Z,37.60
2024-01-03T11:04:17.870Z,37.60
2024-01-03T11:06:59.928Z,37.60
2024-01-03T11:09:28.254Z,37.50
2024-01-03T11:12:06.495Z,37.50
2024-01-03T11:14:33.526Z,37.50
2024-01-03T11:17:00.750Z,37.30
2024-01-03T11:19:29.470Z,37.30
2024-01-03T11:21:57.058Z,37.20
2024-01-03T11:24:43.189Z,37.20
2024-01-03T11:27:19.146Z,37.20
2024-01-03T11:29:47.179Z,37.20
2024-01-03T11:32:15.170Z,37.10
2024-01-03T11:34:46.376Z,37.10
2024-01-03T11:37:33.239Z,37.10
2024-01-03T11:40:00.427Z,37.10
2024-01-03T11:42:30.216Z,37.00
2024-01-03T11:45:01.404Z,37.00
2024-01-03T11:47:28.834Z,37.00
2024-01-03T11:49:57.465Z,37.00
2024-01-03T11:52:24.889Z,37.00
2024-01-03T11:54:52.237Z,37.10
2024-01-03T11:57:22.890Z,37.20
2024-01-03T12:00:01.604Z,37.20
2024-01-03T12:02:29.209Z,37.30
2024-01-03T12:04:59.814Z,37.40
2024-01-03T12:07:27.834Z,37.90
2024-01-03T12:09:55.878Z,38.10
2024-01-03T12:12:23.264Z,38.30
2024-01-03T12:14:56.758Z,38.40
2024-01-03T12:17:31.329Z,38.50
2024-01-03T12:20:12.821Z,38.10
2024-01-03T12:22:40.056Z,37.60
2024-01-03T12:25:07.229Z,37.10
2024-01-03T12:27:35.372Z,36.90
2024-01-03T12:30:16.959Z,36.90
2024-01-03T12:32:44.998Z,36.90
2024-01-03T12:35:14.946Z,37.00
2024-01-03T12:37:43.691Z,36.90
2024-01-03T12:40:13.744Z,36.90
2024-01-03T12:42:42.853Z,36.90
2024-01-03T12:45:10.707Z,36.80
2024-01-03T12:47:37.789Z,36.90
2024-01-03T12:50:05.188Z,37.00
2024-01-03T12:52:32.469Z,36.90
2024-01-03T12:54:59.464Z,36.90
2024-01-03T12:57:26.734Z,36.90
2024-01-03T12:59:54.092Z,36.90
2024-01-03T13:02:21.141Z,36.90
2024-01-03T13:04:48.128Z,37.00
2024-01-03T13:07:15.654Z,37.20
2024-01-03T13:09:44.904Z,37.00
2024-01-03T13:12:11.988Z,37.10
2024-01-03T13:14:38.982Z,37.10
2024-01-03T13:17:06.022Z,37.10
2024-01-03T13:19:33.087Z,37.20
2024-01-03T13:22:01.081Z,37.20
2024-01-03T13:24:28.057Z,37.30
2024-01-03T13:26:55.106Z,37.30
2024-01-03T13:29:22.186Z,37.30
2024-01-03T13:31:49.163Z,37.20
2024-01-03T13:34:16.525Z,37.30
2024-01-03T13:36:43.818Z,37.30
2024-01-03T13:39:12.562Z,37.40
2024-01-03T13:41:39.899Z,37.90
2024-01-03T13:44:07.346Z,37.40
2024-01-03T13:46:34.441Z,37.50
2024-01-03T13:49:01.503Z,37.50
2024-01-03T13:51:30.932Z,37.70
2024-01-03T13:53:59.471Z,37.80
2024-01-03T13:56:26.633Z,37.90
2024-01-03T13:58:54.457Z,37.80
2024-01-03T14:01:21.851Z,37.70
2024-01-03T14:03:49.646Z,37.70
2024-01-03T14:06:17.134Z,37.70
2024-01-03T14:08:44.386Z,37.70
2024-01-03T14:11:11.354Z,37.70
2024-01-03T14:13:38.273Z,37.80
2024-01-03T14:16:08.754Z,37.90
2024-01-03T14:18:35.943Z,38.40
2024-01-03T14:21:04.022Z,38.00
2024-01-03T14:23:32.194Z,38.00
2024-01-03T14:25:59.401Z,38.00
2024-01-03T14:28:26.345Z,38.10
2024-01-03T14:30:53.987Z,38.10
2024-01-03T14:33:21.963Z,38.00
2024-01-03T14:35:50.466Z,37.90
2024-01-03T14:38:17.532Z,38.00
2024-01-03T14:40:49.772Z,38.20
2024-01-03T14:43:33.493Z,38.40
2024-01-03T14:46:04.069Z,38.60
2024-01-03T14:48:32.103Z,38.70
2024-01-03T14:51:00.362Z,38.70
2024-01-03T14:53:27.603Z,38.80
2024-01-03T14:55:57.573Z,38.90
2024-01-03T14:58:28.213Z,38.90
2024-01-03T15:00:56.279Z,39.10
2024-01-03T15:03:24.008Z,39.20
2024-01-03T15:05:51.720Z,39.20
2024-01-03T15:08:18.818Z,39.30
2024-01-03T15:10:45.728Z,39.10
2024-01-03T15:13:13.781Z,39.10
2024-01-03T15:15:44.164Z,39.20
2024-01-03T15:18:13.305Z,39.20
2024-01-03T15:20:41.111Z,39.10
2024-01-03T15:23:09.642Z,39.10
2024-01-03T15:25:38.479Z,39.10
2024-01-03T15:28:05.586Z,39.00
2024-01-03T15:30:32.716Z,38.90
2024-01-03T15:33:03.174Z,38.80
2024-01-03T15:35:30.648Z,39.00
2024-01-03T15:37:59.355Z,39.30
2024-01-03T15:40:26.768Z,39.10
2024-01-03T15:42:54.462Z,39.00
2024-01-03T15:45:21.553Z,38.90
2024-01-03T15:47:49.542Z,38.70
2024-01-03T15:50:16.806Z,38.70
2024-01-03T15:52:43.883Z,38.70
2024-01-03T15:55:10.978Z,38.60
2024-01-03T15:57:38.405Z,38.60
2024-01-03T16:00:09.250Z,38.90
2024-01-03T16:02:36.484Z,39.00
2024-01-03T16:05:03.485Z,39.10
2024-01-03T16:07:31.029Z,39.20
2024-01-03T16:09:58.421Z,39.10
2024-01-03T16:12:25.381Z,39.10
2024-01-03T16:14:54.116Z,39.20
2024-01-03T16:17:21.427Z,39.30
2024-01-03T16:19:48.423Z,39.40
2024-01-03T16:22:15.449Z,39.50
2024-01-03T16:24:42.438Z,39.60
2024-01-03T16:27:09.651Z,39.80
2024-01-03T16:29:37.197Z,39.80
2024-01-03T16:32:05.017Z,39.90
2024-01-03T16:34:32.209Z,40.00
2024-01-03T16:37:00.886Z,40.60
2024-01-03T16:39:28.205Z,41.70
2024-01-03T16:41:57.443Z,42.60
2024-01-03T16:44:24.644Z,43.30
2024-01-03T16:46:52.338Z,44.10
2024-01-03T16:49:20.099Z,45.20
2024-01-03T16:51:48.016Z,45.80
2024-01-03T16:54:15.448Z,46.20
2024-01-03T16:56:47.207Z,46.20
2024-01-03T16:59:15.412Z,46.10
2024-01-03T17:01:44.900Z,45.80
2024-01-03T17:04:16.310Z,45.40
2024-01-03T17:06:46.686Z,45.20
2024-01-03T17:09:15.687Z,44.90
2024-01-03T17:11:43.057Z,44.70
2024-01-03T17:14:10.291Z,44.60
2024-01-03T17:16:37.845Z,44.40
2024-01-03T17:19:05.334Z,44.30
2024-01-03T17:21:33.624Z,44.20
2024-01-03T17:24:01.555Z,44.10
2024-01-03T17:26:31.684Z,44.00
2024-01-03T17:29:00.006Z,43.90
2024-01-03T17:31:28.167Z,43.70
2024-01-03T17:33:56.277Z,43.90
2024-01-03T17:36:25.106Z,43.80
2024-01-03T17:38:52.186Z,43.70
2024-01-03T17:41:19.849Z,43.60
2024-01-03T17:43:46.705Z,43.50
2024-01-03T17:46:13.695Z,43.40
2024-01-03T17:48:41.217Z,43.30
2024-01-03T17:51:08.226Z,43.30
2024-01-03T17:53:35.214Z,43.20
2024-01-03T17:56:04.915Z,43.10
2024-01-03T17:58:33.205Z,43.10
2024-01-03T18:01:00.499Z,43.10
2024-01-03T18:03:29.817Z,43.00
2024-01-03T18:05:57.131Z,42.90
2024-01-03T18:08:24.363Z,42.90
2024-01-03T18:10:52.023Z,42.80
2024-01-03T18:13:19.184Z,42.80
2024-01-03T18:15:46.106Z,43.30
2024-01-03T18:18:13.495Z,42.80
2024-01-03T18:20:40.617Z,42.80
2024-01-03T18:23:09.872Z,42.70
2024-01-03T18:25:36.828Z,42.70
2024-01-03T18:28:03.881Z,42.60
2024-01-03T18:30:30.950Z,42.50
2024-01-03T18:32:59.392Z,42.50
2024-01-03T18:35:26.391Z,42.40
2024-01-03T18:37:53.264Z,42.40
2024-01-03T18:40:20.790Z,42.40
2024-01-03T18:42:50.097Z,42.40
2024-01-03T18:45:17.075Z,42.30
2024-01-03T18:47:47.050Z,42.30
2024-01-03T18:50:16.093Z,42.30
2024-01-03T18:52:43.455Z,42.20
2024-01-03T18:55:11.300Z,42.20
2024-01-03T18:57:40.926Z,42.20
2024-01-03T19:00:08.150Z,42.20
2024-01-03T19:02:35.132Z,42.10
2024-01-03T19:05:02.261Z,42.10
2024-01-03T19:07:29.299Z,42.10
2024-01-03T19:09:56.785Z,42.10
2024-01-03T19:12:23.696Z,42.10
2024-01-03T19:14:50.615Z,42.10
2024-01-03T19:17:17.520Z,42.10
2024-01-03T19:19:44.597Z,42.10
2024-01-03T19:22:11.647Z,42.20
2024-01-03T19:24:38.516Z,42.00
2024-01-03T19:27:05.775Z,42.00
2024-01-03T19:29:32.722Z,41.90
2024-01-03T19:31:59.664Z,41.90
2024-01-03T19:34:27.951Z,41.80
2024-01-03T19:36:54.915Z,41.80
2024-01-03T19:39:21.849Z,41.90
2024-01-03T19:41:48.905Z,41.80
2024-01-03T19:44:17.374Z,41.80
2024-01-03T19:46:44.455Z,41.80
2024-01-03T19:49:14.971Z,41.80
2024-01-03T19:51:42.087Z,41.80
2024-01-03T19:54:10.271Z,41.80
2024-01-03T19:56:40.824Z,41.80
2024-01-03T19:59:07.759Z,41.80
2024-01-03T20:01:34.570Z,41.80
2024-01-03T20:04:01.812Z,41.80
2024-01-03T20:06:29.537Z,41.80
2024-01-03T20:08:59.669Z,41.70
2024-01-03T20:11:26.670Z,41.70
2024-01-03T20:13:53.625Z,41.80
2024-01-03T20:16:20.605Z,42.30
2024-01-03T20:18:47.609Z,41.70
2024-01-03T20:21:15.057Z,41.70
2024-01-03T20:23:42.171Z,41.70
2024-01-03T20:26:12.369Z,41.70
2024-01-03T20:28:43.617Z,41.70
2024-01-03T20:31:11.539Z,41.70
2024-01-03T20:33:38.862Z,41.70
2024-01-03T20:36:06.797Z,41.70
2024-01-03T20:38:37.259Z,41.70
2024-01-03T20:41:05.366Z,41.70
2024-01-03T20:43:36.817Z,41.60
2024-01-03T20:46:06.700Z,41.60
2024-01-03T20:48:34.477Z,41.60
2024-01-03T20:51:01.748Z,41.60
2024-01-03T20:53:33.046Z,41.50
2024-01-03T20:56:00.536Z,41.60
2024-01-03T20:58:27.687Z,41.60
2024-01-03T21:00:54.671Z,41.50
2024-01-03T21:03:21.799Z,41.60
2024-01-03T21:05:48.750Z,41.60
2024-01-03T21:08:15.793Z,41.60
2024-01-03T21:10:42.675Z,41.60
2024-01-03T21:13:09.559Z,42.10
2024-01-03T21:15:36.555Z,41.50
2024-01-03T21:18:03.974Z,41.60
2024-01-03T21:20:31.129Z,41.60
2024-01-03T21:22:58.158Z,41.60
2024-01-03T21:25:25.015Z,41.60
2024-01-03T21:27:52.694Z,41.60
2024-01-03T21:30:21.189Z,41.50
2024-01-03T21:32:49.581Z,41.50
2024-01-03T21:35:16.516Z,41.50
2024-01-03T21:37:43.418Z,41.50
2024-01-03T21:40:11.548Z,41.50
2024-01-03T21:42:41.761Z,41.50
2024-01-03T21:45:09.572Z,41.50
2024-01-03T21:47:40.244Z,41.40
2024-01-03T21:50:08.940Z,41.50
2024-01-03T21:52:35.845Z,41.40
2024-01-03T21:55:03.109Z,41.40
2024-01-03T21:57:31.769Z,41.40
2024-01-03T21:59:59.407Z,41.40
2024-01-03T22:02:26.573Z,41.50
2024-01-03T22:04:53.435Z,41.40
2024-01-03T22:07:20.288Z,41.40
2024-01-03T22:09:47.292Z,41.40
2024-01-03T22:12:14.360Z,41.50
2024-01-03T22:14:47.540Z,41.40
2024-01-03T22:17:14.705Z,41.40
2024-01-03T22:19:43.342Z,41.40
2024-01-03T22:22:10.359Z,41.50
2024-01-03T22:24:37.183Z,41.40
2024-01-03T22:27:04.105Z,41.50
2024-01-03T22:29:31.170Z,41.50
2024-01-03T22:31:58.033Z,41.40
2024-01-03T22:34:29.037Z,41.30
2024-01-03T22:36:56.830Z,41.40
2024-01-03T22:39:23.784Z,41.30
2024-01-03T22:41:50.698Z,41.50
2024-01-03T22:44:17.682Z,41.90
2024-01-03T22:46:48.162Z,41.30
2024-01-03T22:49:15.427Z,41.30
2024-01-03T22:51:43.016Z,41.30
2024-01-03T22:54:10.226Z,41.30
2024-01-03T22:56:40.196Z,41.30
2024-01-03T22:59:09.045Z,41.30
2024-01-03T23:01:36.003Z,41.30
2024-01-03T23:04:03.737Z,41.30
2024-01-03T23:06:31.016Z,41.30
2024-01-03T23:08:57.983Z,41.30
2024-01-03T23:11:24.969Z,41.20
2024-01-03T23:13:51.909Z,41.30
2024-01-03T23:16:20.196Z,41.20
2024-01-03T23:18:47.339Z,41.30
2024-01-03T23:21:19.774Z,41.20
2024-01-03T23:23:46.774Z,41.20
2024-01-03T23:26:14.552Z,41.20
2024-01-03T23:28:41.483Z,41.30
2024-01-03T23:31:09.114Z,41.30
2024-01-03T23:33:36.444Z,41.30
2024-01-03T23:36:03.544Z,41.30
2024-01-03T23:38:30.758Z,41.20
2024-01-03T23:40:57.779Z,41.20
2024-01-03T23:43:24.676Z,41.20
2024-01-03T23:45:51.533Z,41.20
2024-01-03T23:48:18.625Z,41.20
2024-01-03T23:50:45.747Z,41.20
2024-01-03T23:53:12.701Z,41.20
2024-01-03T23:55:39.582Z,41.20
2024-01-03T23:58:06.947Z,41.20
